Time;durP1;ratioP1;P1;durP2;ratioP2;P2;SDS_P1;SDS_P2;PMS_P1;PMS_P2;Temp;Humidity;BMP_temperature;BMP_pressure;BME280_temperature;BME280_humidity;BME280_pressure;Samples;Min_cycle;Max_cycle;Signal;HPM_P1;HPM_P2
2021/03/21 00:01:48;;;;;;;18.75;11.12;;;;;;;-0.76;70.00;99620.41;1741384;82;21282;-67
2021/03/21 00:04:16;;;;;;;21.33;10.78;;;;;;;-0.76;70.01;99622.55;1721951;83;21212;-67
2021/03/21 00:06:45;;;;;;;19.48;10.70;;;;;;;-0.81;70.05;99626.17;1736824;82;21135;-67
2021/03/21 00:09:13;;;;;;;18.75;10.90;;;;;;;-0.82;70.18;99620.11;1744705;82;21590;-67
2021/03/21 00:11:40;;;;;;;20.68;11.63;;;;;;;-0.88;70.25;99627.62;1742672;82;21289;-67
2021/03/21 00:14:07;;;;;;;20.62;10.18;;;;;;;-0.87;70.25;99624.56;1745739;82;21583;-67
2021/03/21 00:16:36;;;;;;;24.18;10.48;;;;;;;-0.94;70.38;99618.69;1745929;82;21765;-67
2021/03/21 00:19:05;;;;;;;21.35;9.55;;;;;;;-0.93;70.33;99611.30;1743563;82;21138;-67
2021/03/21 00:21:32;;;;;;;17.82;10.28;;;;;;;-0.97;70.49;99617.47;1698394;84;21203;-67
2021/03/21 00:24:00;;;;;;;20.17;10.20;;;;;;;-0.94;70.39;99613.48;1700505;84;21175;-67
2021/03/21 00:26:27;;;;;;;19.57;10.40;;;;;;;-1.00;70.51;99609.31;1675457;84;21173;-67
2021/03/21 00:28:56;;;;;;;18.25;9.95;;;;;;;-0.98;70.44;99614.47;1658839;85;21153;-67
2021/03/21 00:31:23;;;;;;;18.37;10.48;;;;;;;-1.02;70.56;99614.14;1686783;85;21231;-67
2021/03/21 00:33:52;;;;;;;14.95;9.53;;;;;;;-1.02;70.54;99607.66;1689915;84;21188;-67
2021/03/21 00:36:19;;;;;;;18.75;10.53;;;;;;;-1.07;70.74;99599.13;1694622;85;21289;-67
2021/03/21 00:38:50;;;;;;;16.02;9.98;;;;;;;-1.06;70.64;99602.11;1695309;85;21214;-66
2021/03/21 00:41:19;;;;;;;15.43;10.60;;;;;;;-1.13;70.77;99607.91;1647045;86;21188;-66
2021/03/21 00:43:47;;;;;;;16.67;9.60;;;;;;;-1.09;70.79;99604.79;1691494;84;21179;-66
2021/03/21 00:46:14;;;;;;;19.92;10.20;;;;;;;-1.14;70.85;99604.05;1692541;85;21315;-66
2021/03/21 00:48:43;;;;;;;16.65;9.28;;;;;;;-1.12;70.76;99603.58;1694694;84;21171;-66
2021/03/21 00:51:12;;;;;;;16.40;10.05;;;;;;;-1.16;70.86;99605.39;1694947;84;21207;-66
2021/03/21 00:53:40;;;;;;;17.10;9.65;;;;;;;-1.13;70.74;99596.69;1737910;82;21178;-66
2021/03/21 00:56:09;;;;;;;15.95;9.90;;;;;;;-1.20;70.87;99598.13;1741499;82;21139;-66
2021/03/21 00:58:39;;;;;;;18.32;9.45;;;;;;;-1.18;70.83;99596.36;1685069;85;21205;-65
2021/03/21 01:01:06;;;;;;;17.73;9.55;;;;;;;-1.21;70.96;99594.27;1736689;82;21176;-65
2021/03/21 01:03:34;;;;;;;20.40;9.90;;;;;;;-1.17;70.89;99595.44;1745951;82;21170;-66
2021/03/21 01:06:05;;;;;;;17.55;9.50;;;;;;;-1.21;71.01;99596.87;1739332;82;21592;-66
2021/03/21 01:08:38;;;;;;;17.42;9.18;;;;;;;-1.21;70.98;99592.98;1677428;85;21182;-65
2021/03/21 01:11:19;;;;;;;20.62;9.93;;;;;;;-1.29;71.10;99597.06;1677828;85;21231;-66
2021/03/21 01:13:46;;;;;;;15.38;8.75;;;;;;;-1.35;71.30;99591.55;1676881;85;21196;-66
2021/03/21 01:16:21;;;;;;;16.42;8.95;;;;;;;-1.41;71.62;99598.64;1724325;82;21169;-66
2021/03/21 01:18:51;;;;;;;24.18;10.48;;;;;;;-1.41;71.64;99586.97;1717923;83;21486;-66
2021/03/21 01:21:19;;;;;;;17.82;9.53;;;;;;;-1.45;71.81;99592.67;1718857;82;21323;-66
2021/03/21 01:23:47;;;;;;;16.20;9.30;;;;;;;-1.49;71.88;99599.66;1717820;83;21196;-66
2021/03/21 01:26:17;;;;;;;15.28;8.25;;;;;;;-1.52;72.05;99599.75;1735986;82;21135;-66
2021/03/21 01:28:45;;;;;;;19.70;10.43;;;;;;;-1.53;72.08;99589.41;1742941;82;21322;-66
2021/03/21 01:31:16;;;;;;;20.17;9.88;;;;;;;-1.54;72.15;99591.13;1732826;83;21207;-66
2021/03/21 01:33:43;;;;;;;17.95;9.40;;;;;;;-1.55;72.19;99585.56;1702550;84;21108;-66
2021/03/21 01:36:17;;;;;;;20.85;10.63;;;;;;;-1.54;72.12;99591.13;1742936;82;21150;-66
2021/03/21 01:38:45;;;;;;;20.52;10.68;;;;;;;-1.56;72.14;99592.94;1751491;82;21139;-67
2021/03/21 01:41:22;;;;;;;19.62;9.88;;;;;;;-1.54;72.20;99582.52;1686959;85;21191;-68
2021/03/21 01:43:50;;;;;;;22.48;10.82;;;;;;;-1.55;72.27;99588.16;1745963;82;21111;-67
2021/03/21 01:46:28;;;;;;;19.10;10.70;;;;;;;-1.51;72.24;99590.21;1727865;82;21145;-67
2021/03/21 01:48:57;;;;;;;18.92;10.28;;;;;;;-1.55;72.32;99588.16;1742117;82;21291;-66
2021/03/21 01:51:33;;;;;;;16.87;9.25;;;;;;;-1.52;72.28;99585.48;1743013;82;21179;-66
2021/03/21 01:54:04;;;;;;;19.73;9.53;;;;;;;-1.57;72.35;99583.87;1655663;87;21628;-66
2021/03/21 01:56:32;;;;;;;14.55;8.40;;;;;;;-1.53;72.35;99573.39;1740014;82;21140;-66
2021/03/21 01:59:08;;;;;;;14.45;8.45;;;;;;;-1.54;72.41;99579.47;1677722;85;21208;-66
2021/03/21 02:01:35;;;;;;;14.63;7.80;;;;;;;-1.50;72.31;99572.05;1739862;82;21572;-66
2021/03/21 02:04:05;;;;;;;17.05;8.95;;;;;;;-1.51;72.25;99572.92;1685495;84;21623;-66
2021/03/21 02:06:41;;;;;;;13.58;8.20;;;;;;;-1.50;72.31;99572.05;1685313;84;21196;-66
2021/03/21 02:09:26;;;;;;;17.32;8.80;;;;;;;-1.51;72.27;99572.92;1684966;84;21211;-66
2021/03/21 02:12:25;;;;;;;14.53;8.38;;;;;;;-1.49;72.14;99567.70;1727323;82;21536;-66
2021/03/21 02:15:18;;;;;;;17.73;9.23;;;;;;;-1.51;72.08;99570.33;1739453;82;21120;-65
2021/03/21 02:18:04;;;;;;;16.32;8.70;;;;;;;-1.56;72.10;99564.41;1654163;85;21171;-65
2021/03/21 02:21:00;;;;;;;17.77;8.78;;;;;;;-1.55;72.15;99560.05;1692434;84;21319;-65
2021/03/21 02:23:56;;;;;;;15.20;8.73;;;;;;;-1.60;72.19;99556.27;1699525;84;21183;-65
2021/03/21 02:26:44;;;;;;;11.80;7.55;;;;;;;-1.58;72.10;99557.09;1688317;84;21189;-65
2021/03/21 02:29:43;;;;;;;14.93;8.48;;;;;;;-1.60;72.12;99554.13;1696728;84;21140;-65
2021/03/21 02:32:34;;;;;;;15.30;8.43;;;;;;;-1.63;72.21;99553.75;1686999;84;21160;-67
2021/03/21 02:35:22;;;;;;;14.58;7.85;;;;;;;-1.63;72.15;99554.21;1671588;86;21239;-65
2021/03/21 02:37:58;;;;;;;15.30;8.60;;;;;;;-1.69;72.20;99549.58;1678484;84;21227;-65
2021/03/21 02:40:46;;;;;;;14.47;7.85;;;;;;;-1.69;72.24;99537.91;1694749;84;21171;-65
2021/03/21 02:43:22;;;;;;;11.15;7.20;;;;;;;-1.74;72.31;99542.78;1677795;85;21175;-65
2021/03/21 02:46:17;;;;;;;11.38;7.05;;;;;;;-1.68;72.22;99537.00;1928505;74;22995;-66
2021/03/21 02:49:04;;;;;;;13.78;7.83;;;;;;;-1.73;72.28;99547.08;1911705;74;21114;-66
2021/03/21 02:51:38;;;;;;;12.43;7.28;;;;;;;-1.72;72.24;99545.74;1830397;77;21131;-66
2021/03/21 02:54:14;;;;;;;14.95;7.80;;;;;;;-1.72;72.31;99538.42;1805068;78;21146;-66
2021/03/21 02:56:45;;;;;;;14.07;8.28;;;;;;;-1.77;72.27;99533.33;1803513;78;21082;-66
2021/03/21 02:59:25;;;;;;;13.78;7.80;;;;;;;-1.78;72.39;99533.38;1816456;79;21185;-66
2021/03/21 03:02:04;;;;;;;13.50;8.30;;;;;;;-1.83;72.46;99534.34;1800709;78;21143;-66
2021/03/21 03:04:35;;;;;;;12.07;7.25;;;;;;;-1.81;72.45;99534.30;1816295;79;21297;-66
2021/03/21 03:07:25;;;;;;;14.95;8.70;;;;;;;-1.84;72.47;99526.14;1836038;78;21590;-66
2021/03/21 03:09:57;;;;;;;14.53;7.62;;;;;;;-1.83;72.39;99520.08;1815550;79;21713;-65
2021/03/21 03:12:40;;;;;;;18.77;9.05;;;;;;;-1.86;72.46;99522.73;1798714;79;21671;-66
2021/03/21 03:15:14;;;;;;;18.67;10.03;;;;;;;-1.83;72.27;99523.97;1825202;78;21139;-65
2021/03/21 03:17:45;;;;;;;22.80;10.32;;;;;;;-1.88;72.41;99526.24;1835539;78;21123;-65
2021/03/21 03:20:48;;;;;;;23.62;11.03;;;;;;;-1.85;72.40;99528.78;1833309;78;21135;-65
2021/03/21 03:23:24;;;;;;;24.12;11.35;;;;;;;-1.87;72.56;99527.95;1822989;79;21152;-66
2021/03/21 03:25:55;;;;;;;20.88;11.05;;;;;;;-1.85;72.52;99529.63;1821326;79;21244;-66
2021/03/21 03:28:40;;;;;;;21.87;10.48;;;;;;;-1.83;72.49;99526.56;1822292;79;21596;-66
2021/03/21 03:31:31;;;;;;;20.20;9.90;;;;;;;-1.82;72.42;99534.75;1771261;78;21998;-66
2021/03/21 03:33:59;;;;;;;20.65;9.65;;;;;;;-1.83;72.39;99520.08;1803183;79;21658;-67
2021/03/21 03:36:27;;;;;;;18.52;10.32;;;;;;;-1.89;72.42;99518.05;1816721;78;21138;-66
2021/03/21 03:38:54;;;;;;;19.67;9.38;;;;;;;-1.90;72.45;99515.91;1822269;78;21277;-67
2021/03/21 03:41:56;;;;;;;17.80;9.23;;;;;;;-1.94;72.54;99511.70;1809750;78;21091;-66
2021/03/21 03:44:52;;;;;;;17.92;9.65;;;;;;;-1.91;72.49;99510.31;1787064;80;21288;-67
2021/03/21 03:47:31;;;;;;;16.87;9.48;;;;;;;-1.96;72.56;99520.39;1756954;80;21170;-66
2021/03/21 03:50:06;;;;;;;18.55;10.25;;;;;;;-1.98;72.53;99508.77;1821221;78;21602;-66
2021/03/21 03:52:57;;;;;;;19.87;9.95;;;;;;;-2.02;72.60;99498.91;1789561;78;21185;-66
2021/03/21 03:55:31;;;;;;;21.87;10.50;;;;;;;-2.04;72.72;99505.86;1811675;78;21154;-66
2021/03/21 03:58:03;;;;;;;22.70;10.82;;;;;;;-2.06;72.83;99501.17;1826109;77;21115;-66
2021/03/21 04:00:39;;;;;;;22.60;11.48;;;;;;;-2.09;72.86;99501.69;1827138;77;21178;-66
2021/03/21 04:03:49;;;;;;;20.55;10.35;;;;;;;-2.06;72.82;99496.42;1830523;77;21126;-66
2021/03/21 04:06:21;;;;;;;22.60;10.80;;;;;;;-2.11;72.91;99498.26;1805882;78;21606;-66
2021/03/21 04:09:00;;;;;;;22.70;11.12;;;;;;;-2.09;72.92;99495.20;1809358;78;21595;-66
2021/03/21 04:11:38;;;;;;;19.45;10.23;;;;;;;-2.10;73.05;99492.20;1826888;77;21123;-66
2021/03/21 04:14:31;;;;;;;19.12;10.05;;;;;;;-2.03;72.92;99493.77;1859972;77;21103;-66
2021/03/21 04:17:22;;;;;;;16.02;8.90;;;;;;;-2.06;72.92;99493.83;1738819;82;21553;-66
2021/03/21 04:20:19;;;;;;;14.63;8.53;;;;;;;-2.03;72.88;99497.66;1729036;83;21212;-66
2021/03/21 04:23:15;;;;;;;12.90;7.50;;;;;;;-2.05;72.95;99494.23;1731489;81;21620;-65
2021/03/21 04:25:47;;;;;;;14.47;8.05;;;;;;;-2.10;73.18;99494.79;1731321;83;21203;-65
2021/03/21 04:28:33;;;;;;;11.90;7.15;;;;;;;-2.08;73.39;99498.20;1731000;83;21313;-65
2021/03/21 04:31:01;;;;;;;11.57;7.60;;;;;;;-2.07;73.49;99492.11;1735888;81;21325;-66
2021/03/21 04:33:42;;;;;;;13.20;8.65;;;;;;;-1.96;73.35;99496.61;1727059;82;21140;-65
2021/03/21 04:36:28;;;;;;;16.27;9.15;;;;;;;-1.92;73.49;99493.05;1737115;82;21187;-66
2021/03/21 04:39:11;;;;;;;17.75;8.98;;;;;;;-1.80;73.29;99498.42;1725803;83;21181;-65
2021/03/21 04:42:04;;;;;;;17.65;8.95;;;;;;;-1.75;73.25;99492.67;1737661;81;21349;-65
2021/03/21 04:44:40;;;;;;;15.55;8.83;;;;;;;-1.69;73.16;99492.53;1725946;83;21192;-66
2021/03/21 04:47:27;;;;;;;13.88;7.97;;;;;;;-1.63;73.09;99486.79;1737082;82;21147;-65
2021/03/21 04:49:56;;;;;;;13.45;8.03;;;;;;;-1.64;73.14;99491.10;1729189;82;21164;-65
2021/03/21 04:52:44;;;;;;;11.12;7.12;;;;;;;-1.59;73.12;99476.28;1736865;82;21115;-65
2021/03/21 04:55:35;;;;;;;11.90;7.53;;;;;;;-1.54;73.18;99475.72;1737161;82;21298;-66
2021/03/21 04:58:05;;;;;;;11.63;7.22;;;;;;;-1.21;73.22;99485.29;1744491;82;21175;-66
2021/03/21 05:00:40;;;;;;;12.68;7.72;;;;;;;-0.62;72.35;99486.28;1737000;82;21752;-66
2021/03/21 05:03:25;;;;;;;12.30;7.20;;;;;;;-0.05;71.00;99477.64;1737269;82;21722;-66
2021/03/21 05:05:59;;;;;;;11.88;7.30;;;;;;;0.36;69.90;99479.83;1736727;82;21139;-66
2021/03/21 05:08:35;;;;;;;12.82;7.62;;;;;;;0.79;68.41;99482.72;1726045;83;21327;-66
2021/03/21 05:11:04;;;;;;;13.03;7.90;;;;;;;1.09;67.72;99476.90;1737046;82;21257;-66
2021/03/21 05:13:46;;;;;;;15.60;8.60;;;;;;;1.42;66.25;99480.49;1736815;82;21151;-66
2021/03/21 05:16:33;;;;;;;13.50;8.23;;;;;;;1.57;65.33;99480.81;1758744;81;21197;-66
2021/03/21 05:19:36;;;;;;;14.63;7.95;;;;;;;1.76;64.40;99479.20;1738858;82;21170;-66
2021/03/21 05:22:33;;;;;;;12.43;8.50;;;;;;;1.89;64.11;99474.83;1757512;81;21579;-66
2021/03/21 05:25:25;;;;;;;16.07;9.00;;;;;;;2.10;63.75;99480.50;1769382;81;21182;-66
2021/03/21 05:28:04;;;;;;;16.05;9.75;;;;;;;2.22;63.05;99467.41;1740732;81;21221;-66
2021/03/21 05:30:33;;;;;;;14.18;8.65;;;;;;;2.25;62.55;99474.27;1741536;81;21178;-66
2021/03/21 05:33:01;;;;;;;12.78;7.80;;;;;;;2.20;62.38;99482.30;1739118;81;21170;-66
2021/03/21 05:35:36;;;;;;;14.47;8.58;;;;;;;2.09;62.11;99477.49;1730145;81;21165;-66
2021/03/21 05:38:15;;;;;;;12.93;8.15;;;;;;;1.88;62.61;99480.51;1755295;82;21281;-66
2021/03/21 05:41:11;;;;;;;15.63;9.13;;;;;;;1.67;62.90;99477.42;1739440;81;21174;-66
2021/03/21 05:44:08;;;;;;;12.63;8.63;;;;;;;1.47;63.26;99475.95;1727419;83;21582;-65
2021/03/21 05:47:07;;;;;;;14.75;9.10;;;;;;;1.27;63.59;99477.15;1740089;81;21569;-66
2021/03/21 05:49:53;;;;;;;16.45;9.30;;;;;;;1.09;64.12;99482.11;1763908;81;21753;-66
2021/03/21 05:52:50;;;;;;;15.18;8.38;;;;;;;1.05;64.52;99467.50;1752047;81;21158;-67
2021/03/21 05:55:45;;;;;;;14.45;8.95;;;;;;;1.04;65.04;99478.82;1755207;81;21114;-67
2021/03/21 05:59:07;;;;;;;17.30;9.83;;;;;;;1.06;64.79;99473.55;1740751;81;21130;-65
2021/03/21 06:02:03;;;;;;;15.63;10.25;;;;;;;0.97;65.15;99469.52;1727602;83;21162;-66
2021/03/21 06:05:07;;;;;;;17.12;10.78;;;;;;;0.96;65.22;99489.97;1738672;82;21372;-66
2021/03/21 06:09:24;;;;;;;15.10;9.25;;;;;;;0.97;65.13;99469.52;1778036;79;22835;-65
2021/03/21 06:12:06;;;;;;;17.02;10.82;;;;;;;0.92;65.50;99466.22;1753151;82;21162;-66
2021/03/21 06:15:25;;;;;;;17.90;10.90;;;;;;;1.03;65.53;99461.48;1753270;82;21735;-65
2021/03/21 06:18:22;;;;;;;16.25;10.13;;;;;;;1.12;65.20;99468.96;1720561;81;21187;-65
2021/03/21 06:21:15;;;;;;;17.30;10.98;;;;;;;1.17;65.13;99464.06;1723604;83;21131;-65
2021/03/21 06:24:04;;;;;;;20.30;12.20;;;;;;;1.22;65.02;99468.19;1725740;83;21206;-65
2021/03/21 06:26:46;;;;;;;20.32;11.05;;;;;;;1.23;64.37;99456.00;1722483;83;21603;-65
2021/03/21 06:29:36;;;;;;;18.00;10.93;;;;;;;1.28;64.12;99452.34;1704963;83;21135;-65
2021/03/21 06:32:48;;;;;;;20.85;12.30;;;;;;;1.31;63.95;99467.01;1704695;83;21135;-65
2021/03/21 06:35:39;;;;;;;19.37;12.00;;;;;;;1.36;63.25;99449.45;1708842;83;21397;-65
2021/03/21 06:38:12;;;;;;;23.50;12.85;;;;;;;1.38;63.32;99448.95;1696722;84;21162;-65
2021/03/21 06:41:12;;;;;;;23.17;13.43;;;;;;;1.36;63.32;99453.35;1696931;84;21199;-66
2021/03/21 06:44:10;;;;;;;21.65;12.78;;;;;;;1.37;63.18;99439.86;1696486;84;21258;-65
2021/03/21 06:47:24;;;;;;;22.60;13.18;;;;;;;1.34;63.14;99436.08;1696117;84;21182;-65
2021/03/21 06:50:16;;;;;;;24.57;12.80;;;;;;;1.39;63.20;99421.13;1696826;83;21738;-66
2021/03/21 06:53:25;;;;;;;23.80;13.93;;;;;;;1.37;62.88;99415.98;1696499;84;21147;-65
2021/03/21 06:55:58;;;;;;;21.07;12.20;;;;;;;1.40;62.94;99413.23;1696843;84;21611;-65
2021/03/21 06:58:46;;;;;;;22.48;13.68;;;;;;;1.35;62.86;99412.56;1716496;83;21154;-66
2021/03/21 07:01:35;;;;;;;25.35;14.05;;;;;;;1.31;62.62;99418.80;1716597;83;21256;-65
2021/03/21 07:04:48;;;;;;;28.23;15.78;;;;;;;1.17;63.07;99414.57;1698295;83;21332;-66
2021/03/21 07:07:38;;;;;;;26.93;14.30;;;;;;;1.14;63.09;99405.95;1704748;83;21416;-65
2021/03/21 07:10:50;;;;;;;28.23;15.00;;;;;;;1.08;63.08;99407.95;1708850;83;21292;-66
2021/03/21 07:13:52;;;;;;;27.32;15.48;;;;;;;1.09;62.52;99402.67;1730182;83;21134;-66
2021/03/21 07:16:45;;;;;;;27.37;14.87;;;;;;;1.18;62.85;99408.44;1713617;83;21308;-65
2021/03/21 07:19:35;;;;;;;;;;;;;;;1.30;61.74;99385.84;1719497;83;21174;-65
2021/03/21 07:22:44;;;;;;;26.90;13.75;;;;;;;1.45;61.64;99386.55;1712473;83;20314;-65
2021/03/21 07:25:52;;;;;;;26.80;14.38;;;;;;;1.57;60.26;99376.56;1718628;83;21633;-66
2021/03/21 07:28:28;;;;;;;21.65;13.53;;;;;;;1.68;60.01;99374.38;1683775;85;21300;-65
2021/03/21 07:31:39;;;;;;;20.55;13.30;;;;;;;1.69;59.32;99373.48;1674244;85;21253;-66
2021/03/21 07:34:46;;;;;;;23.10;13.80;;;;;;;1.70;57.89;99371.27;1706508;83;21138;-66
2021/03/21 07:37:54;;;;;;;24.77;14.18;;;;;;;1.62;57.68;99360.28;1717283;83;21629;-66
2021/03/21 07:40:33;;;;;;;22.77;13.00;;;;;;;1.61;58.17;99355.97;1717266;83;21125;-66
2021/03/21 07:43:24;;;;;;;23.22;13.45;;;;;;;1.58;57.56;99354.80;1729865;82;21292;-66
2021/03/21 07:46:03;;;;;;;26.35;14.28;;;;;;;1.52;57.40;99358.95;1724768;83;21594;-66
2021/03/21 07:49:24;;;;;;;23.57;14.45;;;;;;;1.53;57.50;99346.32;1723227;81;21732;-66
2021/03/21 07:52:30;;;;;;;23.47;13.98;;;;;;;1.64;57.64;99334.55;1720873;83;21193;-67
2021/03/21 07:55:12;;;;;;;19.45;11.43;;;;;;;1.86;56.67;99339.36;1731398;83;21264;-67
2021/03/21 07:57:54;;;;;;;21.45;13.22;;;;;;;1.80;55.79;99332.19;1706445;83;21166;-67
2021/03/21 08:00:21;;;;;;;23.22;14.30;;;;;;;1.82;56.65;99328.64;1708431;83;21559;-67
2021/03/21 08:03:10;;;;;;;19.17;12.18;;;;;;;1.92;56.73;99327.38;1715454;83;21641;-67
2021/03/21 08:05:37;;;;;;;22.25;12.98;;;;;;;2.11;54.70;99326.12;1691669;83;21307;-67
2021/03/21 08:08:05;;;;;;;25.60;13.45;;;;;;;2.12;54.43;99318.25;1707537;83;21178;-67
2021/03/21 08:10:36;;;;;;;21.75;13.20;;;;;;;2.16;54.91;99315.03;1689959;83;21138;-68
2021/03/21 08:13:27;;;;;;;21.75;12.63;;;;;;;2.24;53.79;99310.34;1730007;83;21166;-68
2021/03/21 08:15:54;;;;;;;24.43;13.65;;;;;;;2.20;54.12;99310.53;1708072;83;21686;-66
2021/03/21 08:18:26;;;;;;;21.73;12.47;;;;;;;2.23;54.62;99295.60;1713970;83;21213;-66
2021/03/21 08:21:07;;;;;;;28.80;16.60;;;;;;;2.20;53.68;99302.70;1703897;81;21191;-67
2021/03/21 08:23:40;;;;;;;22.00;13.20;;;;;;;2.19;54.04;99294.52;1711924;83;21162;-67
2021/03/21 08:26:11;;;;;;;22.25;13.38;;;;;;;2.16;54.70;99292.02;1717893;83;21179;-67
2021/03/21 08:29:03;;;;;;;;;;;;;;;2.24;54.43;99283.42;1706175;83;21523;-67
2021/03/21 08:31:35;;;;;;;21.65;12.90;;;;;;;2.33;54.56;99279.09;1712114;83;20198;-67
2021/03/21 08:34:28;;;;;;;23.62;12.55;;;;;;;2.49;54.79;99276.64;1714823;83;21122;-67
2021/03/21 08:37:01;;;;;;;21.90;13.38;;;;;;;2.62;54.73;99269.10;1714903;83;21273;-67
2021/03/21 08:39:42;;;;;;;21.07;12.63;;;;;;;2.78;54.74;99266.19;1715607;83;21328;-66
2021/03/21 08:42:36;;;;;;;21.97;12.25;;;;;;;2.93;53.56;99261.19;1716013;83;21292;-67
2021/03/21 08:45:23;;;;;;;21.27;11.63;;;;;;;2.97;53.66;99256.20;1712757;83;21163;-66
2021/03/21 08:48:01;;;;;;;20.50;11.63;;;;;;;3.15;52.23;99245.34;1709626;83;21182;-66
2021/03/21 08:50:42;;;;;;;20.02;11.88;;;;;;;3.15;52.00;99252.34;1716556;83;21194;-66
2021/03/21 08:53:55;;;;;;;19.25;10.78;;;;;;;3.21;49.96;99246.80;1724459;83;21151;-66
2021/03/21 08:56:36;;;;;;;20.85;11.18;;;;;;;3.17;49.42;99238.28;1701561;84;21343;-66
2021/03/21 08:59:36;;;;;;;19.32;12.18;;;;;;;3.17;50.04;99230.44;1657169;84;21210;-66
2021/03/21 09:02:15;;;;;;;16.42;11.78;;;;;;;3.23;49.58;99221.45;1789121;79;28386;-66
2021/03/21 09:05:03;;;;;;;18.67;11.25;;;;;;;3.42;49.36;99214.38;1765281;80;21134;-66
2021/03/21 09:07:34;;;;;;;18.20;11.25;;;;;;;3.63;48.80;99215.54;1719236;83;21191;-66
2021/03/21 09:10:21;;;;;;;20.97;12.50;;;;;;;3.64;48.69;99205.47;1727599;83;21146;-66
2021/03/21 09:13:04;;;;;;;19.45;11.97;;;;;;;3.64;49.03;99208.09;1745434;81;21127;-66
2021/03/21 09:15:35;;;;;;;16.42;10.93;;;;;;;3.69;48.89;99209.17;1741571;81;21312;-66
2021/03/21 09:18:22;;;;;;;17.77;12.05;;;;;;;3.68;48.49;99220.08;1728385;83;21459;-67
2021/03/21 09:21:06;;;;;;;18.35;10.93;;;;;;;3.66;48.30;99201.02;1738288;81;21158;-66
2021/03/21 09:23:47;;;;;;;17.45;11.50;;;;;;;3.70;49.13;99203.86;1728153;83;21166;-66
2021/03/21 09:26:23;;;;;;;21.45;13.60;;;;;;;3.76;49.21;99193.56;1734949;81;21317;-66
2021/03/21 09:28:55;;;;;;;20.75;13.75;;;;;;;3.83;48.94;99192.78;1697618;84;21671;-66
2021/03/21 09:31:24;;;;;;;23.90;13.90;;;;;;;3.91;48.97;99188.84;1682297;85;21656;-65
2021/03/21 09:34:07;;;;;;;18.98;10.98;;;;;;;4.03;48.08;99189.97;1687621;85;21616;-65
2021/03/21 09:36:48;;;;;;;20.45;12.15;;;;;;;4.14;47.34;99178.09;1684676;85;21368;-66
2021/03/21 09:39:20;;;;;;;18.23;12.28;;;;;;;4.13;47.53;99175.09;1690314;84;21151;-66
2021/03/21 09:41:49;;;;;;;17.87;10.72;;;;;;;4.14;46.83;99176.78;1690546;85;21211;-66
2021/03/21 09:44:37;;;;;;;14.80;9.90;;;;;;;4.12;46.68;99173.39;1690336;85;21171;-66
2021/03/21 09:47:44;;;;;;;18.17;10.98;;;;;;;4.09;47.23;99175.27;1690358;85;21167;-66
2021/03/21 09:50:33;;;;;;;17.77;11.20;;;;;;;4.12;47.72;99161.17;1631622;87;21361;-66
2021/03/21 09:53:23;;;;;;;17.70;11.18;;;;;;;4.21;47.59;99157.22;1625325;88;21371;-65
2021/03/21 09:55:53;;;;;;;16.40;10.35;;;;;;;4.30;47.66;99156.72;1625562;88;21699;-65
2021/03/21 09:58:41;;;;;;;16.60;10.65;;;;;;;4.34;46.67;99155.62;1625232;88;21229;-66
2021/03/21 10:01:30;;;;;;;17.40;10.75;;;;;;;4.37;46.17;99141.52;1625626;88;21194;-65
2021/03/21 10:04:15;;;;;;;16.27;10.80;;;;;;;4.40;46.34;99144.81;1625309;88;21237;-65
2021/03/21 10:06:45;;;;;;;17.30;10.55;;;;;;;4.37;45.73;99134.97;1607070;88;21216;-65
2021/03/21 10:09:16;;;;;;;16.25;10.80;;;;;;;4.24;46.09;99136.10;1625330;88;21185;-68
2021/03/21 10:11:52;;;;;;;18.27;11.33;;;;;;;4.21;45.71;99128.42;1625429;88;21694;-66
2021/03/21 10:14:29;;;;;;;19.40;12.35;;;;;;;4.16;45.78;99136.99;1624899;88;21327;-66
2021/03/21 10:16:58;;;;;;;19.98;12.05;;;;;;;4.15;46.94;99142.67;1625043;87;21657;-66
2021/03/21 10:19:55;;;;;;;19.12;10.72;;;;;;;4.09;46.61;99127.30;1624752;88;21376;-66
2021/03/21 10:22:33;;;;;;;25.08;14.50;;;;;;;4.06;46.73;99119.14;1624764;88;21177;-65
2021/03/21 10:25:13;;;;;;;17.65;11.88;;;;;;;4.07;46.06;99114.30;1624900;88;21169;-65
2021/03/21 10:27:43;;;;;;;15.90;10.88;;;;;;;4.07;46.79;99105.14;1601978;88;21150;-65
2021/03/21 10:30:28;;;;;;;14.75;9.98;;;;;;;4.12;46.50;99113.20;1624781;88;21185;-65
2021/03/21 10:33:04;;;;;;;14.93;10.08;;;;;;;4.10;45.04;99114.59;1624742;88;21181;-65
2021/03/21 10:35:49;;;;;;;16.55;10.78;;;;;;;4.02;45.91;99103.23;1624765;88;21205;-65
2021/03/21 10:38:46;;;;;;;21.90;12.25;;;;;;;4.00;47.88;99104.25;1624914;88;21334;-66
2021/03/21 10:41:56;;;;;;;20.90;12.20;;;;;;;4.14;47.15;99090.42;1623483;88;21192;-65
2021/03/21 10:44:39;;;;;;;19.57;11.53;;;;;;;4.25;46.87;99086.76;1624920;88;21224;-65
2021/03/21 10:47:25;;;;;;;12.45;9.03;;;;;;;4.36;46.93;99080.47;1621765;88;21204;-65
2021/03/21 10:50:00;;;;;;;18.17;11.48;;;;;;;4.36;46.01;99083.09;1620431;87;21185;-65
2021/03/21 10:52:38;;;;;;;18.40;12.07;;;;;;;4.34;47.27;99078.39;1619716;88;21212;-65
2021/03/21 10:55:20;;;;;;;13.40;9.68;;;;;;;4.42;46.56;99067.05;1619829;88;21295;-65
2021/03/21 10:57:49;;;;;;;16.75;10.55;;;;;;;4.49;46.63;99081.07;1619881;88;21760;-65
2021/03/21 11:00:29;;;;;;;16.73;11.08;;;;;;;4.48;46.22;99076.79;1619765;88;21815;-65
2021/03/21 11:03:10;;;;;;;17.87;11.73;;;;;;;4.50;46.94;99070.98;1619812;88;21173;-65
2021/03/21 11:05:43;;;;;;;14.68;10.08;;;;;;;4.55;46.49;99065.02;1619783;88;21185;-65
2021/03/21 11:08:30;;;;;;;15.50;10.58;;;;;;;4.58;46.39;99067.48;1619622;88;21330;-65
2021/03/21 11:11:20;;;;;;;15.10;10.53;;;;;;;4.62;46.51;99054.59;1619675;88;21209;-65
2021/03/21 11:13:49;;;;;;;15.32;10.03;;;;;;;4.67;46.27;99056.95;1619915;88;21335;-66
2021/03/21 11:16:22;;;;;;;16.07;10.15;;;;;;;4.68;45.15;99053.38;1619830;87;21236;-66
2021/03/21 11:18:56;;;;;;;15.50;9.93;;;;;;;4.62;45.52;99045.42;1619798;88;21607;-65
2021/03/21 11:21:24;;;;;;;16.85;11.20;;;;;;;4.61;45.99;99038.48;1619420;88;21205;-66
2021/03/21 11:23:59;;;;;;;18.00;10.60;;;;;;;4.66;45.95;99037.77;1619886;88;21204;-65
2021/03/21 11:26:31;;;;;;;15.05;10.45;;;;;;;4.68;45.82;99023.26;1619997;88;21379;-65
2021/03/21 11:29:14;;;;;;;16.23;10.98;;;;;;;4.71;46.45;99022.62;1619884;88;21205;-65
2021/03/21 11:34:35;;;;;;;18.32;12.53;;;;;;;4.87;45.60;99024.34;1780378;79;23505;-66
2021/03/21 11:37:14;;;;;;;15.50;11.00;;;;;;;4.86;46.18;99009.55;1752633;82;21599;-65
2021/03/21 11:40:00;;;;;;;15.70;10.70;;;;;;;4.90;46.26;99003.23;1752316;82;21309;-65
2021/03/21 11:42:42;;;;;;;15.35;10.43;;;;;;;4.97;45.66;99008.94;1753114;82;21119;-65
2021/03/21 11:45:25;;;;;;;16.37;10.95;;;;;;;4.95;45.46;98998.55;1753117;82;21148;-65
2021/03/21 11:48:09;;;;;;;15.18;9.75;;;;;;;4.91;46.09;98999.20;1751980;82;21297;-66
2021/03/21 11:50:40;;;;;;;13.48;10.15;;;;;;;4.87;45.79;98988.98;1712552;83;21127;-65
2021/03/21 11:53:20;;;;;;;16.52;10.40;;;;;;;4.86;45.53;98971.56;1723381;83;21313;-65
2021/03/21 11:55:56;;;;;;;16.90;11.45;;;;;;;4.89;45.39;98980.58;1723402;83;21124;-65
2021/03/21 11:58:34;;;;;;;13.08;9.55;;;;;;;4.93;45.64;98980.76;1723485;83;21658;-65
2021/03/21 12:01:19;;;;;;;18.15;10.13;;;;;;;4.97;45.05;98973.08;1723173;83;21147;-65
2021/03/21 12:03:51;;;;;;;14.47;9.33;;;;;;;4.93;44.99;98978.14;1723178;83;21281;-66
2021/03/21 12:06:34;;;;;;;22.20;12.00;;;;;;;4.82;45.17;98964.83;1723332;83;21678;-66
2021/03/21 12:09:22;;;;;;;17.48;10.72;;;;;;;4.73;45.92;98956.59;1723322;83;21262;-65
2021/03/21 12:11:49;;;;;;;16.25;10.20;;;;;;;4.74;45.65;98952.19;1723308;83;21194;-65
2021/03/21 12:14:45;;;;;;;16.82;10.78;;;;;;;4.76;45.12;98949.02;1723436;82;21163;-65
2021/03/21 12:17:29;;;;;;;16.82;10.40;;;;;;;4.73;45.18;98955.28;1723414;83;21163;-66
2021/03/21 12:20:00;;;;;;;16.95;11.35;;;;;;;4.74;44.73;98960.91;1723390;83;21195;-65
2021/03/21 12:22:39;;;;;;;17.75;10.55;;;;;;;4.74;44.88;98954.80;1719231;83;21116;-65
2021/03/21 12:25:29;;;;;;;17.42;10.65;;;;;;;4.74;45.59;98948.25;1723329;83;21166;-66
2021/03/21 12:28:11;;;;;;;14.25;9.20;;;;;;;4.78;45.69;98944.52;1723297;83;21167;-66
2021/03/21 12:30:44;;;;;;;19.32;11.45;;;;;;;4.80;46.09;98930.04;1721854;83;21183;-66
2021/03/21 12:33:25;;;;;;;25.73;12.10;;;;;;;4.86;46.51;98927.02;1699119;83;21730;-66
2021/03/21 12:35:56;;;;;;;14.80;9.50;;;;;;;4.91;46.02;98935.00;1731512;83;21276;-66
2021/03/21 12:38:36;;;;;;;14.28;9.93;;;;;;;4.94;44.74;98933.98;1731657;83;21323;-66